createdAt,value
2022-12-23T00:01:06.176Z,71.71
2022-12-23T00:08:30.787Z,71.93
2022-12-23T00:13:27.329Z,71.11
2022-12-23T00:17:21.850Z,71.29
2022-12-23T00:20:14.978Z,70.98
2022-12-23T00:22:43.255Z,70.61
2022-12-23T00:25:11.555Z,71.5
2022-12-23T00:27:39.728Z,71.45
2022-12-23T00:30:07.962Z,70.49
2022-12-23T00:33:13.284Z,71.3
2022-12-23T00:35:41.600Z,70.2
2022-12-23T00:38:09.777Z,70.46
2022-12-23T00:45:34.672Z,69.76
2022-12-23T00:50:30.994Z,70.63
2022-12-23T00:54:13.404Z,70.44
2022-12-23T00:56:33.452Z,70.39
2022-12-23T00:59:38.752Z,70.15
2022-12-23T01:02:44.219Z,70.95
2022-12-23T01:06:26.446Z,70.23
2022-12-23T01:10:08.811Z,70.41
2022-12-23T01:13:51.150Z,71.33
2022-12-23T01:16:19.445Z,71.3
2022-12-23T01:20:38.817Z,70.14
2022-12-23T01:25:35.389Z,70.53
2022-12-23T01:31:08.944Z,68.87
2022-12-23T01:34:14.195Z,70.23
2022-12-23T01:36:42.446Z,70.34
2022-12-23T01:39:10.712Z,71.15
2022-12-23T01:42:16.028Z,73.49
2022-12-23T01:44:44.236Z,71.61
2022-12-23T01:47:49.590Z,71.06
2022-12-23T01:50:54.881Z,71.69
2022-12-23T01:54:00.198Z,73.37
2022-12-23T02:03:36.824Z,72.85
2022-12-23T02:09:10.362Z,70.31
2022-12-23T02:12:15.667Z,71.27
2022-12-23T02:15:58.048Z,71.74
2022-12-23T02:19:03.362Z,70.09
2022-12-23T02:24:36.890Z,69.72
2022-12-23T02:29:33.427Z,70.21
2022-12-23T02:33:15.777Z,71.28
2022-12-23T02:35:44.030Z,70.15
2022-12-23T02:38:12.269Z,70.93
2022-12-23T02:40:40.546Z,70.98
2022-12-23T02:43:08.769Z,69.13
2022-12-23T02:46:14.205Z,69.7
2022-12-23T02:48:42.313Z,69.71
2022-12-23T02:51:10.556Z,70.53
2022-12-23T02:54:52.895Z,68.66
2022-12-23T02:57:58.287Z,68.46
2022-12-23T03:01:03.618Z,71.01
2022-12-23T03:04:08.876Z,70.27
2022-12-23T03:15:36.685Z,70.66
2022-12-23T03:18:04.907Z,72.17
2022-12-23T03:21:10.204Z,71.54
2022-12-23T03:24:15.537Z,70.24
2022-12-23T03:26:43.784Z,70.78
2022-12-23T03:29:12.199Z,71.65
2022-12-23T03:31:40.334Z,70.17
2022-12-23T03:34:08.484Z,71.33
2022-12-23T03:37:13.773Z,72.07
2022-12-23T03:39:42.083Z,72.46
2022-12-23T03:42:10.294Z,71.73
2022-12-23T03:45:38.999Z,71.33
2022-12-23T03:47:43.843Z,70.74
2022-12-23T03:50:12.113Z,69.7
2022-12-23T03:52:40.359Z,69.41
2022-12-23T03:55:08.607Z,68.47
2022-12-23T03:58:51.043Z,69.02
2022-12-23T04:01:56.451Z,70.07
2022-12-23T04:05:01.625Z,70.64
2022-12-23T04:08:06.916Z,68.45
2022-12-23T04:11:49.339Z,69.53
2022-12-23T04:14:17.516Z,68.28
2022-12-23T04:20:28.162Z,70.27
2022-12-23T04:27:15.890Z,70.83
2022-12-23T04:33:26.728Z,71.12
2022-12-23T04:39:37.052Z,71.39
2022-12-23T04:43:56.556Z,69.89
2022-12-23T04:47:01.834Z,70.35
2022-12-23T04:50:35.973Z,70.62
2022-12-23T04:55:32.482Z,71.56
2022-12-23T05:03:34.331Z,71.6
2022-12-23T05:06:02.505Z,71.41
2022-12-23T05:09:07.828Z,70.53
2022-12-23T05:12:50.231Z,70.35
2022-12-23T05:19:37.906Z,70.04
2022-12-23T05:24:34.386Z,69.2
2022-12-23T05:28:16.768Z,68.63
2022-12-23T05:31:59.212Z,68.31
2022-12-23T05:34:27.361Z,67.75
2022-12-23T05:38:09.739Z,67.63
2022-12-23T05:42:29.180Z,70.4
2022-12-23T05:45:34.548Z,70.64
2022-12-23T05:51:08.080Z,69.97
2022-12-23T05:55:27.492Z,71.04
2022-12-23T06:01:38.208Z,70.75
2022-12-23T06:05:20.463Z,71.37
2022-12-23T06:07:48.806Z,69.83
2022-12-23T06:16:27.732Z,70.81
2022-12-23T06:22:38.253Z,68.97
2022-12-23T06:26:57.769Z,70.03
2022-12-23T06:30:02.954Z,70.52
2022-12-23T06:33:08.232Z,69.19
2022-12-23T06:37:27.676Z,70.87
2022-12-23T06:43:38.264Z,68.78
2022-12-23T06:49:32.595Z,68.39
2022-12-23T06:52:00.784Z,69.38
2022-12-23T06:55:06.131Z,68.38
2022-12-23T06:58:48.476Z,68.72
2022-12-23T07:06:13.225Z,70.56
2022-12-23T07:10:32.614Z,70.11
2022-12-23T07:13:00.868Z,70.82
2022-12-23T07:16:06.257Z,70.3
2022-12-23T07:19:11.493Z,68.72
2022-12-23T07:22:16.848Z,69.53
2022-12-23T07:24:45.083Z,68.49
2022-12-23T07:28:27.465Z,67.57
2022-12-23T07:34:38.050Z,67.99
2022-12-23T07:38:20.441Z,67.91
2022-12-23T07:40:48.653Z,67.42
2022-12-23T07:43:53.979Z,67.9
2022-12-23T07:46:59.289Z,67.01
2022-12-23T07:51:55.819Z,67.18
2022-12-23T07:55:38.174Z,68.71
2022-12-23T08:00:34.703Z,68.26
2022-12-23T08:04:08.852Z,69.69
2022-12-23T08:07:14.156Z,67.82
2022-12-23T08:10:56.502Z,67.54
2022-12-23T08:14:01.853Z,69.61
2022-12-23T08:17:07.150Z,69.18
2022-12-23T08:20:12.414Z,67.55
2022-12-23T08:22:40.685Z,67.22
2022-12-23T08:25:08.962Z,68.31
2022-12-23T08:28:14.208Z,67.82
2022-12-23T08:30:42.553Z,67.66
2022-12-23T08:35:39.012Z,69.14
2022-12-23T08:40:35.508Z,67.97
2022-12-23T08:44:54.886Z,67.57
2022-12-23T08:48:00.225Z,70.44
2022-12-23T08:51:42.666Z,69.48
2022-12-23T08:54:47.972Z,68.24
2022-12-23T09:06:32.089Z,67.86
2022-12-23T09:09:00.346Z,67.96
2022-12-23T09:11:28.575Z,67.85
2022-12-23T09:15:10.922Z,68.19
2022-12-23T09:18:16.254Z,68.68
2022-12-23T09:20:44.482Z,69.72
2022-12-23T09:24:26.891Z,68.49
2022-12-23T09:28:29.917Z,68.61
2022-12-23T09:34:03.691Z,68.11
2022-12-23T09:37:08.823Z,68.3
2022-12-23T09:40:14.128Z,68.39
2022-12-23T09:42:42.343Z,68.52
2022-12-23T09:45:10.567Z,67.71
2022-12-23T09:48:52.932Z,68.59
2022-12-23T09:51:58.329Z,68.42
2022-12-23T09:55:03.579Z,71.13
2022-12-23T09:58:08.893Z,70.47
2022-12-23T10:01:14.223Z,69.48
2022-12-23T10:03:42.764Z,72.62
2022-12-23T10:06:12.159Z,73.15
2022-12-23T10:09:15.994Z,73.15
2022-12-23T10:11:44.250Z,69.97
2022-12-23T10:14:12.512Z,72.73
2022-12-23T10:16:40.792Z,70.71
2022-12-23T10:21:00.199Z,70.81
2022-12-23T10:26:33.773Z,70.59
2022-12-23T10:31:40.065Z,71.89
2022-12-23T10:33:58.456Z,70.53
2022-12-23T10:38:46.780Z,71.12
2022-12-23T10:41:15.033Z,69.75
2022-12-23T10:43:43.257Z,70.29
2022-12-23T10:47:25.673Z,70.95
2022-12-23T10:53:36.924Z,70.74
2022-12-23T11:01:38.116Z,69.67
2022-12-23T11:06:37.340Z,70.16
2022-12-23T11:09:02.761Z,70.81
2022-12-23T11:12:45.176Z,72.72
2022-12-23T11:15:13.394Z,71.28
2022-12-23T11:17:41.661Z,70.29
2022-12-23T11:20:09.918Z,71.25
2022-12-23T11:23:52.283Z,71.35
2022-12-23T11:27:34.688Z,73.1
2022-12-23T11:30:02.909Z,73.2
2022-12-23T11:33:08.233Z,71.84
2022-12-23T11:36:54.561Z,74.33
2022-12-23T11:40:32.960Z,75.06
2022-12-23T11:44:15.344Z,73
2022-12-23T11:48:34.837Z,75.68
2022-12-23T11:53:31.231Z,74.43
2022-12-23T11:59:00.746Z,74.1
2022-12-23T12:02:06.063Z,72.89
2022-12-23T12:05:11.328Z,74.82
2022-12-23T12:09:30.744Z,75.03
2022-12-23T12:14:27.268Z,75.3
2022-12-23T12:25:38.027Z,76.08
2022-12-23T12:33:36.437Z,76.11
2022-12-23T12:39:09.758Z,75.3
2022-12-23T12:43:29.175Z,76.77
2022-12-23T12:49:02.740Z,77.57
2022-12-23T12:55:13.327Z,75.37
2022-12-23T13:00:09.849Z,75.86
2022-12-23T13:03:15.173Z,77.28
2022-12-23T13:05:45.974Z,77.45
2022-12-23T13:08:48.723Z,77.23
2022-12-23T13:11:54.046Z,77.12
2022-12-23T13:14:59.334Z,77.74
2022-12-23T13:18:41.698Z,78.12
2022-12-23T13:26:06.434Z,76.58
2022-12-23T13:31:02.971Z,77.49
2022-12-23T13:36:36.558Z,77.18
2022-12-23T13:38:56.524Z,78.09
2022-12-23T13:42:05.443Z,77.82
2022-12-23T13:45:44.209Z,78.83
2022-12-23T13:48:12.463Z,79.87
2022-12-23T13:53:08.931Z,78.96
2022-12-23T13:57:28.363Z,78.36
2022-12-23T14:00:33.737Z,78.22
2022-12-23T14:03:02.041Z,78.95
2022-12-23T14:06:07.261Z,78.13
2022-12-23T14:09:12.539Z,79.77
2022-12-23T14:12:54.929Z,79.19
2022-12-23T14:16:37.313Z,79.47
2022-12-23T14:22:47.914Z,79.13
2022-12-23T14:25:16.181Z,81.26
2022-12-23T14:30:12.679Z,78.24
2022-12-23T14:32:40.881Z,79.92
2022-12-23T14:37:49.881Z,80.19
2022-12-23T14:44:37.584Z,76.84
2022-12-23T14:49:39.392Z,79.07
2022-12-23T14:52:02.300Z,77.68
2022-12-23T14:55:29.493Z,80.68
2022-12-23T14:58:12.923Z,80.29
2022-12-23T15:00:41.183Z,77.28
2022-12-23T15:05:00.621Z,79.43
2022-12-23T15:08:05.929Z,80.25
2022-12-23T15:11:11.200Z,80.19
2022-12-23T15:14:53.591Z,79.63
2022-12-23T15:20:27.151Z,79.16
2022-12-23T15:24:09.568Z,78.24
2022-12-23T15:26:37.957Z,79.41
2022-12-23T15:30:20.208Z,79.32
2022-12-23T15:32:48.409Z,80.1
2022-12-23T15:37:07.832Z,80.16
2022-12-23T15:40:13.824Z,79.73
2022-12-23T15:42:33.209Z,80.59
2022-12-23T15:45:01.453Z,80.92
2022-12-23T15:48:43.843Z,81.65
2022-12-23T15:51:12.083Z,81.19
2022-12-23T15:55:31.526Z,80.45
2022-12-23T16:03:33.410Z,79.59
2022-12-23T16:06:01.577Z,81.36
2022-12-23T16:11:35.128Z,80.19
2022-12-23T16:16:31.654Z,80.53
2022-12-23T16:21:28.118Z,79.81
2022-12-23T16:23:56.364Z,79.83
2022-12-23T16:27:01.664Z,80.11
2022-12-23T16:30:06.943Z,79.08
2022-12-23T16:33:12.376Z,81.05
2022-12-23T16:35:40.500Z,81.02
2022-12-23T16:38:08.831Z,80.38
2022-12-23T16:41:14.060Z,79.94
2022-12-23T16:43:34.220Z,79.93
2022-12-23T16:46:02.490Z,79.95
2022-12-23T16:53:31.207Z,79.98
2022-12-23T16:58:27.699Z,79.79
2022-12-23T17:06:29.534Z,79.04
2022-12-23T17:17:36.626Z,77.53
2022-12-23T17:22:33.115Z,77.06
2022-12-23T17:28:06.673Z,76
2022-12-23T17:31:14.836Z,76.21
2022-12-23T17:33:40.210Z,79.62
2022-12-23T17:40:27.905Z,75.54
2022-12-23T17:46:22.200Z,75.33
2022-12-23T17:52:32.745Z,74.66
2022-12-23T17:57:29.259Z,74.68
2022-12-23T18:09:13.439Z,73.53
2022-12-23T18:14:09.970Z,72.69
2022-12-23T18:19:06.430Z,73.08
2022-12-23T18:22:11.713Z,73.06
2022-12-23T18:24:39.991Z,72.58
2022-12-23T18:27:08.230Z,74.29
2022-12-23T18:32:04.832Z,73.49
2022-12-23T18:35:10.044Z,72.86
2022-12-23T18:38:15.431Z,72.47
2022-12-23T18:40:43.584Z,72.54
2022-12-23T18:43:07.808Z,72.52
2022-12-23T18:46:13.177Z,72.66
2022-12-23T18:48:41.269Z,72.69
2022-12-23T18:51:46.642Z,75.09
2022-12-23T18:54:51.928Z,73
2022-12-23T18:57:57.232Z,72.91
2022-12-23T19:01:02.599Z,72.45
2022-12-23T19:04:07.835Z,72.61
2022-12-23T19:07:50.241Z,72.9
2022-12-23T19:10:55.593Z,72.7
2022-12-23T19:14:00.839Z,73.07
2022-12-23T19:17:06.147Z,72.67
2022-12-23T19:20:11.445Z,73.03
2022-12-23T19:23:53.831Z,72.78
2022-12-23T19:26:59.109Z,72.61
2022-12-23T19:30:41.599Z,72.64
2022-12-23T19:35:37.967Z,73.07
2022-12-23T19:40:34.486Z,75.46
2022-12-23T19:43:02.695Z,75.37
2022-12-23T19:48:36.287Z,74.73
2022-12-23T19:53:32.782Z,73.78
2022-12-23T20:00:12.354Z,73.18
2022-12-23T20:15:39.833Z,71.21
2022-12-23T20:20:35.311Z,71.12
2022-12-23T20:30:28.299Z,69.74
2022-12-23T20:33:33.593Z,69.5
2022-12-23T20:36:38.925Z,68.57
2022-12-23T20:40:21.280Z,68.6
2022-12-23T20:51:28.367Z,68.16
2022-12-23T20:59:50.868Z,68.33
2022-12-23T21:02:56.214Z,67.46
2022-12-23T21:07:15.599Z,67.53
2022-12-23T21:09:43.899Z,67.54
2022-12-23T21:12:12.106Z,67.38
2022-12-23T21:14:40.379Z,67.62
2022-12-23T21:17:08.604Z,67.67
2022-12-23T21:20:13.924Z,67.75
2022-12-23T21:22:42.179Z,68.16
2022-12-23T21:25:10.400Z,67.84
2022-12-23T21:28:52.871Z,67.94
2022-12-23T21:31:58.257Z,67.5
2022-12-23T21:35:03.398Z,67.46
2022-12-23T21:38:45.788Z,67.64
2022-12-23T21:41:14.065Z,67.43
2022-12-23T21:43:42.261Z,67.52
2022-12-23T21:46:10.524Z,67.45
2022-12-23T21:49:15.856Z,67.52
2022-12-23T21:51:44.070Z,67.49
2022-12-23T21:54:12.289Z,67.5
2022-12-23T21:56:32.349Z,67.52
2022-12-23T21:59:00.708Z,67.73
2022-12-23T22:03:57.141Z,67.71
2022-12-23T22:07:02.454Z,67.97
2022-12-23T22:10:07.740Z,68.59
2022-12-23T22:13:13.015Z,69.59
2022-12-23T22:15:41.288Z,72.84
2022-12-23T22:18:09.515Z,71.11
2022-12-23T22:21:51.894Z,72.11
2022-12-23T22:26:11.342Z,72.6
2022-12-23T22:29:16.651Z,73.07
2022-12-23T22:31:44.980Z,73.35
2022-12-23T22:34:13.140Z,73.85
2022-12-23T22:36:41.383Z,73.88
2022-12-23T22:43:29.020Z,74.49
2022-12-23T22:50:16.753Z,74.65
2022-12-23T22:55:13.211Z,74.14
2022-12-23T22:59:32.677Z,73.74
2022-12-23T23:03:15.046Z,74.16
2022-12-23T23:05:43.364Z,74.1
2022-12-23T23:08:03.348Z,73.57
2022-12-23T23:11:08.635Z,73.54
2022-12-23T23:14:13.958Z,73.51
2022-12-23T23:17:56.328Z,73.23
2022-12-23T23:21:01.696Z,73.16
2022-12-23T23:24:06.931Z,72.74
2022-12-23T23:27:12.268Z,72.39
2022-12-23T23:29:40.482Z,72.31
2022-12-23T23:32:08.748Z,72.45
2022-12-23T23:35:14.090Z,72.25
2022-12-23T23:37:42.309Z,71.84
2022-12-23T23:40:10.545Z,71.91
2022-12-23T23:49:26.489Z,70.91
2022-12-23T23:57:28.330Z,70.83
